Time;durP1;ratioP1;P1;durP2;ratioP2;P2;SDS_P1;SDS_P2;PMS_P1;PMS_P2;Temp;Humidity;BMP_temperature;BMP_pressure;BME280_temperature;BME280_humidity;BME280_pressure;Samples;Min_cycle;Max_cycle;Signal;HPM_P1;HPM_P2
2022/11/07 00:01:35;;;;;;;4.85;2.83;;;;;;;9.29;100.00;100295.59;4900992;29;20064;-80
2022/11/07 00:04:04;;;;;;;3.95;2.75;;;;;;;9.35;100.00;100291.56;4902738;29;20087;-81
2022/11/07 00:06:31;;;;;;;4.30;3.15;;;;;;;9.48;100.00;100306.75;4906745;29;20092;-81
2022/11/07 00:08:58;;;;;;;6.03;3.00;;;;;;;9.44;100.00;100290.63;4907597;29;20556;-81
2022/11/07 00:11:25;;;;;;;3.72;2.40;;;;;;;9.56;100.00;100293.75;4908037;29;20063;-79
2022/11/07 00:13:51;;;;;;;4.30;2.67;;;;;;;9.55;100.00;100292.91;4906344;29;20048;-80
2022/11/07 00:16:18;;;;;;;4.72;2.72;;;;;;;9.50;100.00;100300.41;4907620;29;20087;-80
2022/11/07 00:18:44;;;;;;;4.57;2.85;;;;;;;9.44;100.00;100303.69;4905048;29;20089;-79
2022/11/07 00:21:13;;;;;;;3.13;2.65;;;;;;;9.32;100.00;100297.09;4905902;29;20111;-79
2022/11/07 00:23:40;;;;;;;3.42;2.80;;;;;;;9.28;100.00;100311.41;4905625;29;20072;-80
2022/11/07 00:26:11;;;;;;;4.53;2.65;;;;;;;9.25;100.00;100316.94;4905738;29;20530;-80
2022/11/07 00:28:41;;;;;;;5.32;3.03;;;;;;;9.22;100.00;100312.03;4903315;29;20056;-80
2022/11/07 00:31:10;;;;;;;4.78;2.70;;;;;;;9.10;100.00;100308.03;4901759;29;20498;-79
2022/11/07 00:33:37;;;;;;;4.32;3.00;;;;;;;8.99;100.00;100316.94;4900887;29;20123;-79
2022/11/07 00:36:04;;;;;;;3.33;2.22;;;;;;;8.98;100.00;100329.16;4903635;29;20049;-81
2022/11/07 00:38:33;;;;;;;3.15;2.58;;;;;;;8.88;100.00;100325.88;4902747;29;20064;-80
2022/11/07 00:41:00;;;;;;;3.55;2.88;;;;;;;8.86;100.00;100329.59;4904976;29;20052;-81
2022/11/07 00:43:28;;;;;;;5.40;2.80;;;;;;;8.85;100.00;100336.59;4911827;29;20116;-80
2022/11/07 00:45:54;;;;;;;4.47;3.00;;;;;;;8.90;100.00;100328.31;4905211;29;20044;-81
2022/11/07 00:48:22;;;;;;;4.40;2.83;;;;;;;8.93;100.00;100326.22;4903334;29;20165;-82
2022/11/07 00:50:49;;;;;;;4.15;3.03;;;;;;;8.90;100.00;100313.50;4901826;29;20049;-80
2022/11/07 00:53:15;;;;;;;3.90;3.03;;;;;;;8.99;100.00;100319.56;4900039;29;20535;-80
2022/11/07 00:55:43;;;;;;;4.05;2.63;;;;;;;9.05;100.00;100321.56;4901479;29;20059;-80
2022/11/07 00:58:10;;;;;;;3.10;2.70;;;;;;;9.14;100.00;100325.03;4903446;29;20542;-81
2022/11/07 01:00:37;;;;;;;4.18;2.80;;;;;;;9.29;100.00;100313.06;4903430;29;20045;-81
2022/11/07 01:05:59;;;;;;;7.15;2.50;;;;;;;9.61;100.00;100323.66;4904249;29;20063;-80
2022/11/07 01:08:26;;;;;;;4.82;2.50;;;;;;;9.63;100.00;100324.31;4904526;29;20053;-79
2022/11/07 01:10:54;;;;;;;4.22;2.67;;;;;;;9.65;100.00;100324.97;4895159;29;20049;-80
2022/11/07 01:13:21;;;;;;;4.50;2.83;;;;;;;9.69;100.00;100329.88;4903548;29;20112;-81
2022/11/07 01:15:47;;;;;;;3.38;2.40;;;;;;;9.74;100.00;100325.81;4902912;29;20113;-80
2022/11/07 01:18:14;;;;;;;8.05;2.75;;;;;;;9.74;100.00;100333.66;4903223;29;20143;-79
2022/11/07 01:20:41;;;;;;;3.97;2.55;;;;;;;9.71;99.86;100333.97;4903516;29;20080;-80
2022/11/07 01:23:08;;;;;;;4.60;2.95;;;;;;;9.62;99.77;100340.97;4902669;29;20095;-79
2022/11/07 01:25:36;;;;;;;4.70;3.08;;;;;;;9.64;99.71;100338.19;4904252;29;20508;-80
2022/11/07 01:28:06;;;;;;;4.20;3.00;;;;;;;9.59;99.94;100338.66;4904712;29;20048;-80
2022/11/07 01:30:32;;;;;;;5.57;2.65;;;;;;;9.59;100.00;100340.44;4902380;29;20105;-79
2022/11/07 01:32:59;;;;;;;4.97;3.65;;;;;;;9.57;100.00;100335.38;4903348;29;20131;-81
2022/11/07 01:35:26;;;;;;;4.80;2.80;;;;;;;9.43;100.00;100322.94;4902372;29;20092;-81
2022/11/07 01:37:53;;;;;;;3.47;2.90;;;;;;;9.29;100.00;100328.72;4901729;29;20076;-78
2022/11/07 01:40:19;;;;;;;4.32;3.13;;;;;;;9.10;100.00;100326.31;4902779;29;20084;-80
2022/11/07 01:42:46;;;;;;;5.45;2.90;;;;;;;9.01;100.00;100332.44;4902493;29;20080;-79
2022/11/07 01:45:20;;;;;;;6.70;3.33;;;;;;;8.92;100.00;100329.81;4901989;29;20083;-80
2022/11/07 01:47:48;;;;;;;4.40;3.10;;;;;;;8.78;100.00;100317.31;4883691;29;20049;-80
2022/11/07 01:50:15;;;;;;;3.50;3.10;;;;;;;8.80;100.00;100328.41;4883641;29;20105;-81
2022/11/07 01:52:44;;;;;;;4.93;3.17;;;;;;;8.76;100.00;100321.84;4883472;29;20083;-80
2022/11/07 01:55:15;;;;;;;5.88;3.10;;;;;;;8.74;100.00;100325.59;4883460;29;20429;-79
2022/11/07 01:57:45;;;;;;;6.13;3.53;;;;;;;8.74;100.00;100318.59;4897846;29;20136;-79
2022/11/07 02:00:17;;;;;;;4.07;2.92;;;;;;;8.74;100.00;100331.63;4904795;29;20131;-79
2022/11/07 02:02:46;;;;;;;5.75;3.55;;;;;;;8.66;100.00;100326.34;4881949;29;20064;-79
2022/11/07 02:05:19;;;;;;;8.43;3.50;;;;;;;8.60;100.00;100329.53;4883101;29;20109;-79
2022/11/07 02:07:47;;;;;;;6.68;3.65;;;;;;;8.57;100.00;100329.84;4883108;29;20091;-79
2022/11/07 02:10:15;;;;;;;8.60;3.78;;;;;;;8.53;100.00;100331.94;4895128;29;20080;-80
2022/11/07 02:12:42;;;;;;;5.35;3.55;;;;;;;8.53;100.00;100325.91;4902945;29;20108;-79
2022/11/07 02:15:10;;;;;;;6.65;3.33;;;;;;;8.54;100.00;100332.75;4921979;23;20071;-80
2022/11/07 02:17:38;;;;;;;8.38;3.50;;;;;;;8.50;100.00;100326.22;4915190;29;20084;-80
2022/11/07 02:20:06;;;;;;;5.93;3.38;;;;;;;8.48;100.00;100331.59;4905519;29;20088;-80
2022/11/07 02:22:41;;;;;;;9.07;3.60;;;;;;;8.51;100.00;100333.03;4909054;29;20056;-81
2022/11/07 02:25:12;;;;;;;7.32;3.35;;;;;;;8.55;100.00;100326.56;4902325;29;20126;-80
2022/11/07 02:27:40;;;;;;;6.10;3.30;;;;;;;8.59;100.00;100330.50;4889547;29;20045;-81
2022/11/07 02:30:10;;;;;;;5.35;3.67;;;;;;;8.58;100.00;100324.47;4893873;29;20059;-80
2022/11/07 02:32:37;;;;;;;5.45;3.50;;;;;;;8.59;100.00;100322.69;4907753;29;20084;-80
2022/11/07 02:35:06;;;;;;;5.40;3.65;;;;;;;8.53;100.00;100316.28;4906441;29;20123;-81
2022/11/07 02:37:35;;;;;;;7.63;3.58;;;;;;;8.57;100.00;100317.63;4911388;29;20072;-82
2022/11/07 02:40:08;;;;;;;10.82;3.50;;;;;;;8.55;100.00;100326.56;4909673;29;20100;-82
2022/11/07 02:42:44;;;;;;;10.25;3.42;;;;;;;8.55;100.00;100316.13;4911994;29;20056;-83
2022/11/07 02:45:13;;;;;;;7.88;3.67;;;;;;;8.45;100.00;100318.03;4910233;29;20068;-83
2022/11/07 02:47:40;;;;;;;3.80;3.28;;;;;;;8.44;100.00;100329.44;4905507;29;20071;-81
2022/11/07 02:50:08;;;;;;;9.95;3.80;;;;;;;8.35;100.00;100323.31;4906075;29;20242;-81
2022/11/07 02:52:35;;;;;;;7.20;3.50;;;;;;;8.25;100.00;100322.53;4909147;29;20219;-81
2022/11/07 02:55:02;;;;;;;8.55;3.70;;;;;;;8.23;100.00;100332.28;4909074;29;20070;-81
2022/11/07 02:57:28;;;;;;;10.88;3.78;;;;;;;8.18;100.00;100327.50;4906710;29;20476;-80
2022/11/07 02:59:57;;;;;;;7.28;3.88;;;;;;;8.18;100.00;100331.91;4906490;29;20096;-80
2022/11/07 03:02:24;;;;;;;6.63;3.80;;;;;;;8.19;100.00;100339.56;4906864;29;20492;-80
2022/11/07 03:04:51;;;;;;;9.65;4.10;;;;;;;8.20;100.00;100336.00;4913566;29;20092;-80
2022/11/07 03:07:18;;;;;;;5.78;4.13;;;;;;;8.20;100.00;100336.00;4909416;29;20060;-81
2022/11/07 03:09:45;;;;;;;9.98;4.30;;;;;;;8.13;100.00;100340.16;4916585;29;20068;-80
2022/11/07 03:12:11;;;;;;;7.03;4.28;;;;;;;8.08;100.00;100334.56;4910049;29;20093;-81
2022/11/07 03:14:38;;;;;;;12.13;5.32;;;;;;;8.04;100.00;100345.44;4908877;29;20087;-81
2022/11/07 03:17:06;;;;;;;7.32;3.85;;;;;;;7.97;100.00;100347.81;4909301;29;20091;-80
2022/11/07 03:19:32;;;;;;;6.95;4.15;;;;;;;7.89;100.00;100339.91;4907166;29;20156;-81
2022/11/07 03:21:59;;;;;;;7.57;3.83;;;;;;;7.80;100.00;100333.78;4906155;29;20123;-80
2022/11/07 03:24:26;;;;;;;7.10;4.10;;;;;;;7.79;100.00;100346.94;4907083;29;20098;-80
2022/11/07 03:26:52;;;;;;;8.27;4.32;;;;;;;7.73;100.00;100348.34;4907288;29;20056;-79
2022/11/07 03:29:19;;;;;;;8.52;3.95;;;;;;;7.77;100.00;100349.69;4905148;29;20136;-80
2022/11/07 03:31:46;;;;;;;8.27;4.57;;;;;;;7.82;100.00;100344.06;4905463;29;20167;-80
2022/11/07 03:34:14;;;;;;;7.50;4.30;;;;;;;7.84;100.00;100349.94;4905605;29;20072;-81
2022/11/07 03:36:40;;;;;;;10.20;4.45;;;;;;;7.83;100.00;100345.69;4907991;29;20083;-81
2022/11/07 03:39:09;;;;;;;8.52;4.20;;;;;;;7.83;100.00;100353.53;4905821;29;20108;-80
2022/11/07 03:41:36;;;;;;;10.30;4.82;;;;;;;7.84;100.00;100355.97;4907834;29;20136;-81
2022/11/07 03:44:02;;;;;;;8.52;4.75;;;;;;;7.79;100.00;100358.19;4908274;29;20116;-81
2022/11/07 03:46:29;;;;;;;11.52;4.90;;;;;;;7.75;100.00;100358.63;4913351;29;20099;-80
2022/11/07 03:48:55;;;;;;;9.15;4.88;;;;;;;7.72;100.00;100357.13;4912060;29;20053;-80
2022/11/07 03:51:23;;;;;;;9.05;5.40;;;;;;;7.68;100.00;100360.16;4914527;29;20092;-80
2022/11/07 03:53:50;;;;;;;9.93;5.03;;;;;;;7.66;100.00;100370.72;4915112;29;20079;-80
2022/11/07 03:56:17;;;;;;;12.27;5.03;;;;;;;7.64;100.00;100377.84;4912731;29;20049;-80
2022/11/07 03:58:43;;;;;;;9.70;5.13;;;;;;;7.57;100.00;100364.59;4910536;29;20068;-80
2022/11/07 04:01:12;;;;;;;9.93;5.32;;;;;;;7.53;100.00;100367.66;4909578;29;20144;-80
2022/11/07 04:03:38;;;;;;;8.63;5.28;;;;;;;7.58;100.00;100384.44;4909871;29;20053;-80
2022/11/07 04:06:05;;;;;;;8.63;5.35;;;;;;;7.59;100.00;100382.66;4909096;29;20084;-80
2022/11/07 04:08:33;;;;;;;8.45;5.07;;;;;;;7.56;100.00;100378.56;4910193;29;20080;-81
2022/11/07 04:11:04;;;;;;;10.32;5.18;;;;;;;7.56;100.00;100378.56;4908754;29;20084;-80
2022/11/07 04:19:02;;;;;;;11.05;4.85;;;;;;;7.80;100.00;100387.66;4904529;29;20140;-81
2022/11/07 04:21:29;;;;;;;10.35;4.78;;;;;;;7.76;100.00;100378.50;4904676;29;20108;-81
2022/11/07 04:23:57;;;;;;;9.40;5.22;;;;;;;7.83;100.00;100390.00;4905059;29;20169;-81
2022/11/07 04:29:08;;;;;;;11.68;4.50;;;;;;;7.75;100.00;100387.28;4905658;29;20112;-80
2022/11/07 04:31:34;;;;;;;13.45;5.03;;;;;;;7.77;100.00;100387.94;4906230;29;20401;-80
2022/11/07 04:34:01;;;;;;;10.02;4.60;;;;;;;7.70;100.00;100392.91;4905582;29;20115;-81
2022/11/07 04:36:27;;;;;;;10.90;4.82;;;;;;;7.65;100.00;100392.50;4905600;29;20095;-81
2022/11/07 04:38:54;;;;;;;9.70;5.32;;;;;;;7.58;100.00;100392.25;4905509;29;20104;-81
2022/11/07 04:41:24;;;;;;;9.52;5.38;;;;;;;7.47;100.00;100376.03;4904534;29;20079;-81
2022/11/07 04:43:51;;;;;;;10.02;5.53;;;;;;;7.51;100.00;100385.19;4905400;29;20084;-81
2022/11/07 04:46:17;;;;;;;10.23;5.50;;;;;;;7.52;100.00;100381.63;4903449;29;20051;-81
2022/11/07 04:48:44;;;;;;;8.05;4.90;;;;;;;7.56;100.00;100390.78;4905117;29;20052;-81
2022/11/07 04:51:16;;;;;;;11.07;5.28;;;;;;;7.51;100.00;100386.00;4903776;29;20424;-80
2022/11/07 04:53:43;;;;;;;8.90;4.88;;;;;;;7.58;100.00;100389.66;4904392;29;20124;-78
2022/11/07 04:56:10;;;;;;;10.32;5.10;;;;;;;7.56;100.00;100388.19;4903094;29;20092;-81
2022/11/07 04:58:38;;;;;;;13.45;5.97;;;;;;;7.64;100.00;100386.50;4901713;29;20079;-80
2022/11/07 05:01:04;;;;;;;12.70;5.53;;;;;;;7.68;100.00;100391.41;4901345;29;20041;-79
2022/11/07 05:03:31;;;;;;;12.32;5.43;;;;;;;7.65;100.00;100390.72;4900976;29;20118;-81
2022/11/07 05:05:58;;;;;;;10.75;4.90;;;;;;;7.61;100.00;100381.56;4901168;29;20467;-79
2022/11/07 05:08:24;;;;;;;12.90;4.68;;;;;;;7.66;100.00;100383.75;4900787;29;20504;-79
2022/11/07 05:10:51;;;;;;;11.68;5.30;;;;;;;7.71;100.00;100383.31;4901297;29;20119;-80
2022/11/07 05:13:18;;;;;;;9.60;4.78;;;;;;;7.70;100.00;100390.31;4901239;29;20080;-79
2022/11/07 05:15:46;;;;;;;9.60;4.75;;;;;;;7.81;100.00;100391.91;4901343;29;20169;-80
2022/11/07 05:18:12;;;;;;;9.05;4.78;;;;;;;7.77;100.00;100395.75;4901489;29;20092;-80
2022/11/07 05:20:39;;;;;;;9.30;4.60;;;;;;;7.78;100.00;100390.41;4902364;29;20056;-81
2022/11/07 05:23:13;;;;;;;13.60;5.00;;;;;;;7.80;100.00;100390.28;4903038;29;20088;-80
2022/11/07 05:25:41;;;;;;;10.50;4.88;;;;;;;7.72;100.00;100387.56;4902957;29;20056;-81
2022/11/07 05:28:09;;;;;;;11.70;4.30;;;;;;;7.74;100.00;100386.47;4904471;29;20556;-80
2022/11/07 05:30:38;;;;;;;12.25;4.80;;;;;;;7.77;100.00;100393.97;4905214;29;20085;-80
2022/11/07 05:33:06;;;;;;;10.27;4.10;;;;;;;7.85;100.00;100393.28;4902594;29;20079;-79
2022/11/07 05:35:32;;;;;;;9.63;3.90;;;;;;;7.91;100.00;100385.69;4902140;29;20080;-80
2022/11/07 05:37:59;;;;;;;12.50;3.83;;;;;;;7.96;100.00;100374.84;4902292;29;20091;-79
2022/11/07 05:40:26;;;;;;;7.45;3.72;;;;;;;8.15;100.00;100390.34;4901517;29;20087;-80
2022/11/07 05:42:52;;;;;;;12.75;3.83;;;;;;;8.27;100.00;100388.38;4901512;29;20455;-79
2022/11/07 05:45:19;;;;;;;16.90;4.53;;;;;;;8.47;100.00;100383.88;4902402;29;20136;-80
2022/11/07 05:47:45;;;;;;;10.55;5.53;;;;;;;8.52;100.00;100386.84;4904649;29;20135;-80
2022/11/07 05:50:13;;;;;;;15.77;4.20;;;;;;;8.68;100.00;100383.56;4903620;29;20094;-79
2022/11/07 05:52:40;;;;;;;11.05;4.40;;;;;;;8.64;100.00;100376.03;4904545;29;20659;-79
2022/11/07 05:55:07;;;;;;;8.98;3.88;;;;;;;8.64;100.00;100385.66;4905876;29;20120;-80
2022/11/07 05:57:34;;;;;;;13.05;3.90;;;;;;;8.71;100.00;100386.69;4907540;29;20132;-80
2022/11/07 06:00:01;;;;;;;9.90;3.63;;;;;;;8.78;100.00;100386.94;4906812;29;20092;-81
2022/11/07 06:02:27;;;;;;;13.70;4.10;;;;;;;8.76;100.00;100384.47;4906622;29;20048;-81
2022/11/07 06:04:55;;;;;;;12.45;3.92;;;;;;;8.82;100.00;100389.09;4907354;29;20080;-82
2022/11/07 06:07:23;;;;;;;14.40;4.00;;;;;;;8.77;100.00;100386.09;4909378;29;20052;-81
2022/11/07 06:09:50;;;;;;;11.88;4.07;;;;;;;8.74;100.00;100386.41;4908579;29;20076;-81
2022/11/07 06:12:16;;;;;;;10.23;3.97;;;;;;;8.73;100.00;100384.75;4908024;29;20112;-80
2022/11/07 06:14:43;;;;;;;12.90;3.72;;;;;;;8.80;100.00;100395.44;4916962;29;20057;-80
2022/11/07 06:17:10;;;;;;;8.68;4.07;;;;;;;8.89;100.00;100392.75;4915563;29;20072;-79
2022/11/07 06:19:38;;;;;;;9.35;3.92;;;;;;;8.90;100.00;100391.78;4915375;29;20072;-80
2022/11/07 06:22:04;;;;;;;10.55;4.25;;;;;;;8.91;100.00;100392.59;4910753;29;20499;-81
2022/11/07 06:24:32;;;;;;;12.23;4.03;;;;;;;8.88;100.00;100404.16;4907128;29;20060;-80
2022/11/07 06:26:59;;;;;;;10.75;4.07;;;;;;;9.02;100.00;100394.13;4905931;29;20087;-80
2022/11/07 06:29:26;;;;;;;12.00;3.67;;;;;;;9.07;100.00;100394.47;4904090;29;20551;-81
2022/11/07 06:31:56;;;;;;;9.77;4.18;;;;;;;9.22;100.00;100403.41;4904322;29;20055;-81
2022/11/07 06:34:22;;;;;;;12.55;3.92;;;;;;;9.31;100.00;100400.72;4905116;29;20088;-81
2022/11/07 06:36:53;;;;;;;12.18;4.10;;;;;;;9.25;100.00;100400.50;4907697;29;20131;-82
2022/11/07 06:39:19;;;;;;;6.63;3.88;;;;;;;9.24;100.00;100404.06;4906533;29;20067;-81
2022/11/07 06:41:48;;;;;;;9.88;3.50;;;;;;;9.23;100.00;100402.44;4907180;29;20076;-82
2022/11/07 06:44:14;;;;;;;11.18;3.58;;;;;;;9.41;100.00;100418.88;4907088;29;20060;-82
2022/11/07 06:46:41;;;;;;;11.63;3.95;;;;;;;9.55;100.00;100415.69;4907076;29;20060;-80
2022/11/07 06:49:08;;;;;;;10.20;3.15;;;;;;;9.65;100.00;100407.75;4906730;29;20122;-79
2022/11/07 06:51:34;;;;;;;16.33;5.85;;;;;;;9.67;100.00;100412.81;4908342;29;20131;-81
2022/11/07 06:54:01;;;;;;;7.78;3.22;;;;;;;9.74;100.00;100416.44;4910337;29;20072;-79
2022/11/07 06:56:28;;;;;;;12.95;3.42;;;;;;;9.84;100.00;100423.22;4909429;29;20462;-80
2022/11/07 06:58:55;;;;;;;12.13;3.58;;;;;;;10.05;100.00;100420.19;4908203;29;20076;-79
2022/11/07 07:01:22;;;;;;;12.63;4.38;;;;;;;10.08;100.00;100417.25;4908379;29;20095;-79
2022/11/07 07:03:49;;;;;;;12.98;3.70;;;;;;;10.20;99.89;100425.66;4913999;29;20060;-80
2022/11/07 07:06:17;;;;;;;12.65;3.58;;;;;;;10.24;99.50;100419.13;4915631;29;20063;-80
2022/11/07 07:08:48;;;;;;;10.70;3.30;;;;;;;10.29;99.28;100422.91;4916750;29;20068;-82
2022/11/07 07:11:16;;;;;;;8.13;3.10;;;;;;;10.36;99.65;100428.34;4912598;29;20060;-82
2022/11/07 07:13:43;;;;;;;10.27;3.38;;;;;;;10.52;99.28;100435.38;4909844;29;20081;-80
2022/11/07 07:16:11;;;;;;;10.48;3.88;;;;;;;10.51;99.18;100434.56;4907051;29;20095;-79
2022/11/07 07:18:38;;;;;;;14.65;5.93;;;;;;;10.60;99.04;100438.03;4905077;29;20496;-79
2022/11/07 07:21:06;;;;;;;8.05;4.10;;;;;;;10.69;98.73;100441.47;4903646;29;20052;-79
2022/11/07 07:23:33;;;;;;;13.40;3.13;;;;;;;10.93;97.96;100442.31;4903488;29;20562;-79
2022/11/07 07:26:00;;;;;;;10.85;3.90;;;;;;;10.88;97.89;100454.25;4903034;29;20072;-79
2022/11/07 07:28:27;;;;;;;13.20;4.13;;;;;;;10.99;97.81;100453.94;4903402;29;20482;-79
2022/11/07 07:30:53;;;;;;;14.23;4.57;;;;;;;11.10;97.69;100447.56;4901629;29;20055;-78
2022/11/07 07:33:22;;;;;;;15.07;5.00;;;;;;;11.27;96.97;100459.66;4900128;29;20064;-80
2022/11/07 07:35:48;;;;;;;13.18;5.05;;;;;;;11.32;96.59;100451.31;4904393;29;20465;-80
2022/11/07 07:38:15;;;;;;;13.65;4.75;;;;;;;11.35;96.50;100456.22;4903683;29;20204;-81
2022/11/07 07:40:41;;;;;;;11.65;3.83;;;;;;;11.42;96.20;100458.00;4905410;29;20111;-82
2022/11/07 07:43:08;;;;;;;14.48;3.40;;;;;;;11.47;96.00;100455.72;4905614;29;20048;-81
2022/11/07 07:45:35;;;;;;;10.02;3.85;;;;;;;11.59;95.73;100458.81;4904004;29;20048;-80
2022/11/07 07:48:02;;;;;;;8.68;3.47;;;;;;;11.57;95.78;100456.34;4905457;29;20079;-82
2022/11/07 07:50:30;;;;;;;9.57;3.92;;;;;;;11.62;95.98;100454.06;4906676;29;20087;-83
2022/11/07 07:52:57;;;;;;;16.42;3.92;;;;;;;11.61;95.48;100457.66;4903113;29;20487;-82
2022/11/07 07:55:24;;;;;;;10.95;5.68;;;;;;;11.67;96.09;100468.47;4904956;29;20052;-81
2022/11/07 07:57:51;;;;;;;9.25;4.00;;;;;;;11.70;95.67;100470.75;4904089;29;20050;-78
2022/11/07 08:00:18;;;;;;;12.25;4.20;;;;;;;11.74;95.43;100461.56;4903322;29;20080;-80
2022/11/07 08:02:44;;;;;;;11.50;4.72;;;;;;;11.75;95.56;100477.13;4901917;29;20080;-82
2022/11/07 08:05:13;;;;;;;13.13;4.00;;;;;;;11.71;96.06;100467.16;4897328;29;20084;-81
2022/11/07 08:07:48;;;;;;;9.18;3.80;;;;;;;11.73;96.21;100463.38;4902940;29;20071;-82
2022/11/07 08:10:16;;;;;;;8.90;3.53;;;;;;;11.79;96.11;100465.34;4904873;29;20095;-81
2022/11/07 08:12:44;;;;;;;8.38;3.17;;;;;;;11.75;96.52;100468.44;4899298;29;20096;-80
2022/11/07 08:17:43;;;;;;;10.43;3.60;;;;;;;11.76;97.39;100475.31;4915296;29;20056;-78
2022/11/07 08:20:11;;;;;;;8.05;3.13;;;;;;;11.79;97.32;100480.28;4928171;29;20106;-78
2022/11/07 08:22:38;;;;;;;10.63;3.45;;;;;;;11.80;97.06;100481.91;4914910;29;20080;-79
2022/11/07 08:25:09;;;;;;;8.88;3.67;;;;;;;11.78;97.50;100483.88;4913298;29;20052;-79
2022/11/07 08:27:35;;;;;;;9.00;3.25;;;;;;;11.89;97.49;100478.25;4892408;29;20045;-79
2022/11/07 08:30:03;;;;;;;9.13;3.38;;;;;;;11.89;97.17;100491.38;4901325;29;20147;-78
2022/11/07 08:32:30;;;;;;;10.48;3.00;;;;;;;11.89;97.81;100486.94;4898732;29;20052;-78
2022/11/07 08:34:57;;;;;;;6.80;3.10;;;;;;;11.93;97.74;100501.34;4915414;29;20095;-78
2022/11/07 08:37:23;;;;;;;7.28;3.40;;;;;;;11.96;97.96;100502.81;4908584;29;20139;-78
2022/11/07 08:39:50;;;;;;;6.97;3.03;;;;;;;11.95;98.26;100501.19;4903677;29;20140;-78
2022/11/07 08:42:18;;;;;;;9.85;3.35;;;;;;;11.95;98.33;100507.25;4895565;29;20080;-76
2022/11/07 08:44:45;;;;;;;8.73;2.80;;;;;;;12.01;98.21;100502.31;4893236;29;20049;-78
2022/11/07 08:47:11;;;;;;;8.38;3.35;;;;;;;12.00;98.28;100505.94;4878025;29;20548;-78
2022/11/07 08:49:38;;;;;;;8.55;2.88;;;;;;;11.97;98.59;100509.69;4877381;29;20060;-78
2022/11/07 08:52:04;;;;;;;6.90;2.63;;;;;;;12.01;98.47;100508.38;4877815;29;20109;-77
2022/11/07 08:54:32;;;;;;;8.00;2.85;;;;;;;12.09;98.22;100510.97;4885199;29;20179;-77
2022/11/07 08:56:59;;;;;;;8.77;3.05;;;;;;;12.14;97.83;100506.06;4894989;29;20059;-78
2022/11/07 08:59:28;;;;;;;9.10;3.47;;;;;;;12.17;97.86;100505.72;4896060;29;20502;-77
2022/11/07 09:01:54;;;;;;;7.93;3.10;;;;;;;12.16;97.71;100514.56;4888123;29;20112;-78
2022/11/07 09:04:21;;;;;;;8.23;3.10;;;;;;;12.24;97.70;100516.34;4895135;29;20136;-76
2022/11/07 09:06:47;;;;;;;9.50;3.28;;;;;;;12.36;97.58;100506.28;4895413;29;20143;-78
2022/11/07 09:09:14;;;;;;;8.98;2.80;;;;;;;12.43;96.70;100505.44;4895428;29;20058;-78
2022/11/07 09:11:41;;;;;;;10.00;3.55;;;;;;;12.37;96.63;100513.16;4890744;29;20585;-78
2022/11/07 09:14:08;;;;;;;9.13;3.10;;;;;;;12.45;96.25;100511.34;4882136;29;20053;-77
2022/11/07 09:16:36;;;;;;;5.65;3.00;;;;;;;12.44;96.32;100514.94;4895960;29;20508;-78
2022/11/07 09:19:02;;;;;;;9.43;2.95;;;;;;;12.41;96.28;100517.91;4895246;29;20686;-77
2022/11/07 09:21:29;;;;;;;8.45;3.38;;;;;;;12.41;96.66;100523.16;4896748;29;20144;-77
2022/11/07 09:23:55;;;;;;;6.25;3.28;;;;;;;12.33;98.31;100527.63;4881581;29;20132;-78
2022/11/07 09:26:22;;;;;;;9.25;3.58;;;;;;;12.26;99.27;100530.13;4877639;29;20136;-78
2022/11/07 09:28:49;;;;;;;10.73;3.17;;;;;;;12.20;100.00;100523.75;4877532;29;20132;-77
2022/11/07 09:31:15;;;;;;;11.95;3.80;;;;;;;12.30;100.00;100534.84;4878760;29;20130;-79
2022/11/07 09:33:43;;;;;;;9.60;3.55;;;;;;;12.35;100.00;100528.25;4889994;29;20075;-78
2022/11/07 09:36:11;;;;;;;6.60;2.83;;;;;;;12.51;100.00;100522.97;4895485;29;20057;-78
2022/11/07 09:38:38;;;;;;;10.77;3.20;;;;;;;12.54;99.97;100522.63;4895505;29;20053;-78
2022/11/07 09:41:07;;;;;;;6.32;3.25;;;;;;;12.54;99.67;100530.50;4879519;29;20140;-78
2022/11/07 09:43:54;;;;;;;11.77;2.90;;;;;;;12.48;99.84;100532.00;4877262;29;20056;-76
2022/11/07 09:46:31;;;;;;;6.40;2.53;;;;;;;12.57;99.32;100546.72;4878439;29;20099;-77
2022/11/07 09:49:08;;;;;;;8.18;3.50;;;;;;;12.57;99.38;100538.03;4878300;29;20049;-78
2022/11/07 09:51:38;;;;;;;10.35;2.78;;;;;;;12.69;99.46;100541.09;4881706;29;20135;-77
2022/11/07 09:54:10;;;;;;;6.75;3.15;;;;;;;12.72;98.54;100544.19;4882706;29;20059;-78
2022/11/07 09:56:37;;;;;;;7.07;2.95;;;;;;;12.71;98.12;100547.00;4883290;29;20174;-78
2022/11/07 09:59:07;;;;;;;7.63;2.92;;;;;;;12.81;97.67;100551.00;4877608;29;20056;-78
2022/11/07 10:01:34;;;;;;;10.57;3.70;;;;;;;12.84;97.13;100555.94;4884794;29;20140;-78
2022/11/07 10:04:02;;;;;;;7.65;3.03;;;;;;;12.93;96.64;100560.16;4879064;29;20136;-78
2022/11/07 10:06:31;;;;;;;8.90;3.40;;;;;;;12.93;96.73;100559.31;4883300;29;20131;-78
2022/11/07 10:09:11;;;;;;;7.15;2.90;;;;;;;13.00;96.42;100557.66;4895064;29;20104;-77
2022/11/07 10:11:43;;;;;;;7.18;3.15;;;;;;;13.12;96.19;100558.06;4895439;29;20076;-77
2022/11/07 10:14:30;;;;;;;10.93;3.30;;;;;;;13.14;95.84;100551.66;4894772;29;20104;-77
2022/11/07 10:17:08;;;;;;;10.38;3.63;;;;;;;13.20;95.68;100553.63;4894733;29;20063;-76
2022/11/07 10:19:49;;;;;;;7.90;3.05;;;;;;;13.15;95.29;100557.72;4894760;29;20443;-77
2022/11/07 10:22:39;;;;;;;8.90;3.42;;;;;;;13.10;95.06;100565.31;4895520;29;20381;-75
2022/11/07 10:25:21;;;;;;;8.40;2.95;;;;;;;13.16;95.07;100554.97;4895515;29;20116;-78
2022/11/07 10:27:53;;;;;;;8.80;3.50;;;;;;;13.26;94.86;100552.91;4895820;29;20527;-76
2022/11/07 10:30:21;;;;;;;;;;;;;;;13.40;94.05;100556.56;4898645;29;20095;-77
2022/11/07 10:32:55;;;;;;;9.57;3.15;;;;;;;13.44;93.60;100542.09;4900154;29;19983;-78
2022/11/07 10:35:28;;;;;;;9.93;3.47;;;;;;;13.70;92.91;100556.69;4900058;29;20063;-77
2022/11/07 10:37:57;;;;;;;7.70;3.42;;;;;;;14.00;92.10;100553.09;4900163;29;20139;-77
2022/11/07 10:40:28;;;;;;;8.60;3.15;;;;;;;14.24;90.27;100544.91;4899747;29;20048;-78
2022/11/07 10:42:55;;;;;;;10.85;3.92;;;;;;;14.45;89.58;100546.03;4898916;29;20142;-76
2022/11/07 10:45:23;;;;;;;11.45;3.10;;;;;;;14.52;88.38;100542.50;4897773;29;20044;-78
2022/11/07 10:47:58;;;;;;;10.90;3.10;;;;;;;14.65;88.17;100547.09;4897938;29;20356;-76
2022/11/07 10:50:26;;;;;;;12.88;3.45;;;;;;;14.66;87.87;100532.09;4898804;29;20048;-78
2022/11/07 10:52:55;;;;;;;6.82;2.60;;;;;;;14.70;87.40;100542.09;4898450;29;20507;-77
2022/11/07 10:55:22;;;;;;;19.10;5.07;;;;;;;14.69;87.71;100537.81;4898272;29;20152;-78
2022/11/07 10:57:53;;;;;;;9.57;3.10;;;;;;;14.53;86.95;100538.03;4898641;29;20140;-78
2022/11/07 11:00:24;;;;;;;10.85;3.40;;;;;;;14.38;87.73;100542.47;4898093;29;20104;-78
2022/11/07 11:02:52;;;;;;;7.32;3.13;;;;;;;14.43;88.61;100534.88;4898682;29;20310;-77
2022/11/07 11:05:27;;;;;;;12.80;3.38;;;;;;;14.42;88.09;100538.50;4898640;29;20103;-77
2022/11/07 11:07:56;;;;;;;9.18;2.90;;;;;;;14.38;87.94;100530.13;4901193;29;20108;-79
2022/11/07 11:10:25;;;;;;;5.97;3.00;;;;;;;14.54;87.71;100539.69;4904235;29;20049;-79
2022/11/07 11:12:52;;;;;;;9.52;3.00;;;;;;;14.56;87.00;100529.78;4904162;29;20080;-79
2022/11/07 11:15:23;;;;;;;9.80;3.00;;;;;;;14.54;87.06;100532.59;4903880;29;20194;-77
2022/11/07 11:17:59;;;;;;;9.02;2.92;;;;;;;14.71;87.00;100529.72;4900386;29;20143;-77
2022/11/07 11:20:33;;;;;;;6.85;2.90;;;;;;;14.78;87.03;100528.00;4901296;29;20059;-78
2022/11/07 11:23:01;;;;;;;12.68;3.00;;;;;;;14.88;85.71;100529.34;4902332;29;20140;-77
2022/11/07 11:25:28;;;;;;;7.95;2.70;;;;;;;14.92;85.08;100525.31;4901488;29;20088;-78
2022/11/07 11:28:01;;;;;;;6.03;2.63;;;;;;;14.91;85.39;100521.06;4900867;29;20063;-78
2022/11/07 11:30:30;;;;;;;5.47;2.30;;;;;;;15.06;84.90;100525.47;4901319;29;20472;-77
2022/11/07 11:33:06;;;;;;;6.78;2.45;;;;;;;15.01;84.93;100526.03;4896561;29;20139;-79
2022/11/07 11:35:38;;;;;;;7.07;2.63;;;;;;;15.02;83.52;100518.94;4899890;29;20052;-78
2022/11/07 11:38:14;;;;;;;10.45;2.95;;;;;;;15.15;83.66;100522.50;4899312;29;20173;-78
2022/11/07 11:40:44;;;;;;;7.57;2.58;;;;;;;15.18;82.59;100523.94;4900930;29;20056;-78